createdAt,value
2023-05-08T00:00:10.403Z,60.00
2023-05-08T00:02:42.394Z,60.00
2023-05-08T00:05:12.215Z,49.50
2023-05-08T00:07:40.471Z,49.08
2023-05-08T00:10:10.659Z,48.92
2023-05-08T00:12:39.168Z,46.72
2023-05-08T00:15:08.792Z,43.63
2023-05-08T00:17:37.065Z,37.35
2023-05-08T00:20:05.929Z,33.15
2023-05-08T00:22:35.677Z,36.78
2023-05-08T00:25:05.452Z,32.40
2023-05-08T00:27:34.220Z,32.22
2023-05-08T00:30:02.767Z,33.17
2023-05-08T00:32:31.145Z,32.95
2023-05-08T00:34:59.565Z,30.77
2023-05-08T00:37:27.867Z,31.55
2023-05-08T00:39:57.603Z,31.77
2023-05-08T00:42:26.109Z,32.50
2023-05-08T00:44:54.421Z,27.50
2023-05-08T00:47:23.740Z,29.60
2023-05-08T00:49:52.365Z,28.55
2023-05-08T00:52:21.033Z,32.80
2023-05-08T00:54:50.261Z,27.92
2023-05-08T00:57:20.393Z,31.00
2023-05-08T00:59:50.439Z,27.42
2023-05-08T01:02:19.181Z,28.00
2023-05-08T01:04:49.725Z,25.85
2023-05-08T01:07:19.283Z,26.08
2023-05-08T01:09:47.621Z,24.30
2023-05-08T01:12:22.348Z,22.40
2023-05-08T01:15:06.254Z,21.63
2023-05-08T01:17:44.309Z,21.55
2023-05-08T01:20:24.724Z,20.48
2023-05-08T01:23:35.884Z,18.35
2023-05-08T01:26:22.804Z,20.27
2023-05-08T01:29:27.113Z,19.88
2023-05-08T01:32:16.837Z,18.55
2023-05-08T01:34:52.809Z,18.15
2023-05-08T01:37:31.467Z,18.25
2023-05-08T01:40:12.037Z,15.00
2023-05-08T01:42:50.269Z,15.82
2023-05-08T01:45:22.717Z,14.90
2023-05-08T01:47:58.890Z,16.58
2023-05-08T01:50:34.279Z,17.85
2023-05-08T01:53:09.258Z,16.77
2023-05-08T01:55:40.987Z,17.27
2023-05-08T02:00:42.679Z,17.38
2023-05-08T02:03:15.187Z,18.75
2023-05-08T02:05:45.307Z,16.90
2023-05-08T02:08:16.034Z,16.13
2023-05-08T02:10:46.184Z,16.73
2023-05-08T02:13:19.135Z,16.63
2023-05-08T02:15:50.632Z,16.45
2023-05-08T02:18:22.860Z,16.25
2023-05-08T02:20:53.301Z,18.75
2023-05-08T02:23:23.618Z,16.08
2023-05-08T02:25:52.988Z,16.98
2023-05-08T02:28:21.723Z,18.20
2023-05-08T02:30:51.783Z,18.42
2023-05-08T02:33:22.512Z,17.10
2023-05-08T02:35:52.578Z,16.40
2023-05-08T02:38:22.777Z,18.15
2023-05-08T02:40:57.736Z,17.92
2023-05-08T02:43:26.625Z,16.27
2023-05-08T02:46:04.554Z,14.73
2023-05-08T02:48:39.278Z,16.92
2023-05-08T02:51:19.505Z,17.73
2023-05-08T02:53:53.866Z,16.98
2023-05-08T02:56:32.031Z,16.42
2023-05-08T02:59:18.167Z,16.35
2023-05-08T03:01:53.486Z,16.23
2023-05-08T03:04:31.295Z,17.00
2023-05-08T03:07:00.608Z,17.02
2023-05-08T03:09:38.246Z,16.45
2023-05-08T03:12:12.344Z,17.60
2023-05-08T03:14:56.297Z,14.98
2023-05-08T03:17:27.377Z,18.25
2023-05-08T03:20:01.812Z,15.68
2023-05-08T03:22:33.711Z,16.27
2023-05-08T03:25:06.581Z,16.27
2023-05-08T03:27:38.135Z,16.13
2023-05-08T03:30:09.603Z,18.58
2023-05-08T03:32:41.306Z,16.35
2023-05-08T03:35:12.059Z,18.15
2023-05-08T03:37:42.679Z,17.80
2023-05-08T03:40:12.268Z,15.57
2023-05-08T03:42:41.657Z,14.98
2023-05-08T03:45:11.996Z,15.90
2023-05-08T03:47:42.326Z,14.55
2023-05-08T03:50:12.557Z,15.50
2023-05-08T03:52:41.266Z,16.33
2023-05-08T03:55:11.385Z,13.73
2023-05-08T03:57:46.879Z,14.35
2023-05-08T04:00:23.508Z,15.45
2023-05-08T04:02:58.401Z,13.90
2023-05-08T04:05:37.792Z,14.48
2023-05-08T04:08:22.593Z,15.27
2023-05-08T04:11:00.004Z,16.60
2023-05-08T04:13:32.294Z,13.43
2023-05-08T04:16:08.405Z,13.55
2023-05-08T04:18:40.969Z,14.18
2023-05-08T04:21:13.290Z,13.30
2023-05-08T04:23:45.381Z,12.57
2023-05-08T04:26:17.156Z,13.75
2023-05-08T04:28:47.549Z,13.52
2023-05-08T04:31:18.363Z,12.23
2023-05-08T04:33:47.996Z,13.45
2023-05-08T04:36:17.752Z,14.15
2023-05-08T04:38:47.120Z,15.05
2023-05-08T04:41:16.321Z,13.77
2023-05-08T04:43:45.439Z,13.52
2023-05-08T04:46:13.873Z,12.52
2023-05-08T04:48:42.228Z,12.75
2023-05-08T04:51:10.492Z,13.15
2023-05-08T04:53:40.073Z,12.55
2023-05-08T04:56:08.879Z,12.95
2023-05-08T04:58:37.222Z,14.00
2023-05-08T05:01:07.139Z,12.73
2023-05-08T05:03:35.534Z,12.88
2023-05-08T05:06:04.166Z,12.65
2023-05-08T05:08:32.439Z,11.98
2023-05-08T05:11:02.225Z,15.40
2023-05-08T05:13:32.888Z,13.45
2023-05-08T05:16:01.536Z,13.30
2023-05-08T05:18:30.493Z,13.05
2023-05-08T05:21:00.124Z,13.10
2023-05-08T05:23:30.780Z,13.18
2023-05-08T05:25:59.062Z,13.35
2023-05-08T05:28:28.962Z,11.73
2023-05-08T05:30:57.967Z,15.88
2023-05-08T05:33:26.312Z,13.07
2023-05-08T05:35:54.601Z,12.52
2023-05-08T05:38:23.011Z,13.55
2023-05-08T05:40:51.392Z,12.00
2023-05-08T05:43:19.761Z,12.05
2023-05-08T05:45:49.389Z,11.75
2023-05-08T05:48:17.788Z,11.80
2023-05-08T05:50:46.860Z,13.52
2023-05-08T05:53:15.928Z,12.75
2023-05-08T05:55:44.237Z,15.80
2023-05-08T05:58:12.474Z,11.52
2023-05-08T06:00:40.846Z,11.95
2023-05-08T06:03:11.683Z,13.20
2023-05-08T06:05:40.483Z,12.90
2023-05-08T06:08:09.322Z,13.20
2023-05-08T06:10:37.515Z,13.73
2023-05-08T06:13:05.882Z,12.45
2023-05-08T06:15:36.082Z,12.80
2023-05-08T06:18:05.316Z,11.90
2023-05-08T06:20:37.888Z,12.27
2023-05-08T06:25:34.437Z,15.15
2023-05-08T06:28:03.707Z,12.98
2023-05-08T06:30:32.133Z,11.88
2023-05-08T06:33:00.447Z,13.30
2023-05-08T06:35:28.793Z,13.90
2023-05-08T06:37:58.416Z,15.75
2023-05-08T06:40:26.728Z,13.32
2023-05-08T06:42:55.048Z,13.32
2023-05-08T06:45:23.329Z,13.70
2023-05-08T06:47:51.636Z,14.05
2023-05-08T06:50:20.065Z,13.27
2023-05-08T06:52:48.290Z,14.82
2023-05-08T06:55:18.081Z,14.73
2023-05-08T06:57:46.399Z,11.32
2023-05-08T07:00:16.349Z,12.93
2023-05-08T07:02:44.642Z,14.45
2023-05-08T07:05:13.343Z,12.43
2023-05-08T07:07:42.673Z,13.15
2023-05-08T07:10:11.549Z,12.52
2023-05-08T07:12:41.378Z,12.93
2023-05-08T07:15:23.930Z,15.13
2023-05-08T07:17:54.358Z,13.80
2023-05-08T07:20:24.314Z,13.57
2023-05-08T07:22:52.882Z,14.90
2023-05-08T07:25:21.088Z,13.38
2023-05-08T07:27:50.770Z,13.20
2023-05-08T07:30:19.331Z,13.27
2023-05-08T07:32:47.818Z,14.45
2023-05-08T07:35:16.368Z,13.07
2023-05-08T07:37:44.900Z,15.25
2023-05-08T07:40:13.410Z,13.02
2023-05-08T07:42:42.249Z,12.68
2023-05-08T07:45:14.104Z,13.15
2023-05-08T07:47:50.717Z,12.15
2023-05-08T07:50:20.461Z,13.63
2023-05-08T07:52:50.303Z,13.90
2023-05-08T07:55:19.504Z,14.02
2023-05-08T07:57:48.112Z,12.38
2023-05-08T08:00:18.736Z,14.35
2023-05-08T08:02:47.573Z,14.88
2023-05-08T08:05:16.197Z,16.92
2023-05-08T08:07:44.775Z,13.30
2023-05-08T08:10:13.258Z,12.50
2023-05-08T08:12:42.445Z,13.75
2023-05-08T08:15:12.142Z,14.45
2023-05-08T08:17:42.160Z,13.88
2023-05-08T08:20:11.013Z,15.38
2023-05-08T08:22:39.452Z,13.98
2023-05-08T08:25:08.699Z,13.45
2023-05-08T08:27:37.156Z,14.00
2023-05-08T08:30:16.682Z,15.30
2023-05-08T08:32:48.730Z,13.68
2023-05-08T08:35:17.375Z,14.82
2023-05-08T08:37:46.500Z,13.40
2023-05-08T08:40:14.970Z,13.95
2023-05-08T08:42:43.232Z,14.88
2023-05-08T08:45:12.632Z,12.63
2023-05-08T08:47:45.246Z,13.25
2023-05-08T08:50:15.972Z,13.82
2023-05-08T08:52:50.802Z,13.00
2023-05-08T08:55:21.429Z,14.95
2023-05-08T08:58:08.715Z,15.30
2023-05-08T09:00:38.619Z,13.98
2023-05-08T09:03:07.923Z,16.40
2023-05-08T09:05:38.829Z,15.13
2023-05-08T09:08:07.749Z,11.87
2023-05-08T09:10:37.158Z,14.50
2023-05-08T09:13:05.914Z,14.93
2023-05-08T09:15:34.613Z,13.65
2023-05-08T09:18:03.543Z,15.10
2023-05-08T09:20:32.044Z,13.95
2023-05-08T09:23:03.648Z,16.08
2023-05-08T09:28:19.318Z,14.73
2023-05-08T09:30:51.979Z,13.98
2023-05-08T09:33:21.114Z,15.68
2023-05-08T09:35:49.610Z,16.55
2023-05-08T09:38:36.404Z,15.00
2023-05-08T09:41:09.597Z,13.90
2023-05-08T09:43:38.161Z,15.80
2023-05-08T09:46:23.766Z,15.63
2023-05-08T09:48:53.671Z,16.23
2023-05-08T09:51:22.529Z,16.48
2023-05-08T09:53:54.171Z,18.25
2023-05-08T09:59:06.347Z,14.65
2023-05-08T10:01:36.710Z,16.88
2023-05-08T10:04:06.024Z,16.60
2023-05-08T10:06:36.524Z,16.63
2023-05-08T10:09:10.663Z,17.17
2023-05-08T10:11:40.001Z,16.77
2023-05-08T10:14:08.644Z,16.75
2023-05-08T10:16:42.961Z,15.68
2023-05-08T10:19:15.532Z,17.58
2023-05-08T10:21:47.032Z,17.30
2023-05-08T10:24:19.118Z,16.45
2023-05-08T10:27:07.051Z,17.40
2023-05-08T10:29:47.013Z,16.88
2023-05-08T10:32:20.165Z,17.27
2023-05-08T10:34:51.169Z,17.10
2023-05-08T10:37:19.807Z,17.00
2023-05-08T10:39:50.226Z,18.80
2023-05-08T10:42:18.637Z,16.88
2023-05-08T10:44:47.721Z,17.30
2023-05-08T10:47:24.505Z,18.15
2023-05-08T10:50:01.687Z,17.40
2023-05-08T10:52:37.283Z,19.15
2023-05-08T10:55:21.306Z,19.45
2023-05-08T10:58:12.255Z,17.85
2023-05-08T11:01:12.452Z,17.55
2023-05-08T11:03:43.398Z,18.85
2023-05-08T11:06:12.552Z,21.02
2023-05-08T11:08:54.749Z,18.15
2023-05-08T11:11:31.551Z,22.20
2023-05-08T11:14:11.901Z,20.08
2023-05-08T11:17:06.541Z,19.67
2023-05-08T11:19:35.402Z,19.77
2023-05-08T11:22:32.770Z,20.52
2023-05-08T11:25:06.754Z,18.90
2023-05-08T11:28:14.218Z,21.60
2023-05-08T11:30:46.025Z,19.48
2023-05-08T11:33:18.905Z,20.17
2023-05-08T11:35:53.833Z,20.27
2023-05-08T11:38:27.860Z,21.30
2023-05-08T11:40:59.305Z,21.42
2023-05-08T11:43:46.883Z,22.42
2023-05-08T11:46:18.359Z,22.13
2023-05-08T11:48:46.957Z,24.63
2023-05-08T11:51:18.112Z,21.90
2023-05-08T11:53:47.047Z,23.58
2023-05-08T11:56:15.488Z,21.58
2023-05-08T11:58:44.167Z,22.05
2023-05-08T12:01:12.511Z,24.20
2023-05-08T12:03:42.430Z,22.58
2023-05-08T12:06:10.994Z,23.58
2023-05-08T12:08:40.518Z,24.15
2023-05-08T12:11:08.837Z,23.13
2023-05-08T12:13:37.278Z,22.27
2023-05-08T12:16:05.827Z,24.38
2023-05-08T12:18:34.257Z,24.45
2023-05-08T12:21:03.900Z,22.13
2023-05-08T12:23:32.153Z,22.65
2023-05-08T12:26:01.533Z,23.02
2023-05-08T12:28:32.291Z,20.85
2023-05-08T12:31:00.701Z,21.27
2023-05-08T12:33:29.162Z,25.70
2023-05-08T12:35:57.718Z,25.55
2023-05-08T12:38:29.142Z,24.27
2023-05-08T12:40:57.529Z,26.98
2023-05-08T12:43:33.651Z,24.23
2023-05-08T12:46:02.964Z,20.55
2023-05-08T12:48:31.923Z,22.98
2023-05-08T12:51:04.969Z,22.10
2023-05-08T12:53:35.666Z,22.42
2023-05-08T12:56:06.175Z,24.40
2023-05-08T12:58:35.789Z,21.63
2023-05-08T13:01:13.192Z,26.27
2023-05-08T13:03:42.676Z,22.70
2023-05-08T13:06:21.268Z,23.63
2023-05-08T13:08:55.167Z,23.88
2023-05-08T13:11:31.454Z,23.65
2023-05-08T13:13:59.752Z,22.55
2023-05-08T13:16:28.110Z,22.65
2023-05-08T13:18:56.550Z,23.25
2023-05-08T13:21:27.297Z,24.13
2023-05-08T13:23:57.733Z,24.98
2023-05-08T13:26:26.341Z,24.45
2023-05-08T13:28:56.479Z,22.05
2023-05-08T13:31:25.195Z,24.20
2023-05-08T13:33:53.459Z,25.02
2023-05-08T13:36:21.877Z,26.42
2023-05-08T13:38:51.403Z,24.63
2023-05-08T13:41:21.340Z,25.17
2023-05-08T13:43:49.708Z,26.60
2023-05-08T13:46:17.974Z,25.73
2023-05-08T13:48:46.298Z,25.15
2023-05-08T13:51:14.525Z,24.58
2023-05-08T13:53:42.765Z,25.38
2023-05-08T13:56:11.244Z,25.40
2023-05-08T13:58:41.033Z,24.25
2023-05-08T14:01:25.051Z,24.15
2023-05-08T14:03:55.424Z,24.58
2023-05-08T14:06:23.986Z,25.23
2023-05-08T14:08:55.493Z,23.45
2023-05-08T14:11:25.673Z,24.63
2023-05-08T14:13:55.749Z,24.05
2023-05-08T14:16:24.079Z,24.27
2023-05-08T14:18:52.384Z,21.10
2023-05-08T14:21:20.629Z,23.60
2023-05-08T14:23:48.826Z,23.02
2023-05-08T14:26:17.235Z,24.60
2023-05-08T14:28:45.513Z,22.33
2023-05-08T14:31:15.252Z,22.50
2023-05-08T14:33:43.671Z,20.10
2023-05-08T14:36:12.110Z,20.77
2023-05-08T14:38:40.327Z,19.75
2023-05-08T14:41:08.534Z,21.13
2023-05-08T14:43:36.818Z,20.25
2023-05-08T14:46:05.178Z,21.10
2023-05-08T14:48:35.034Z,19.25
2023-05-08T14:51:03.319Z,19.08
2023-05-08T14:53:31.661Z,18.00
2023-05-08T14:56:01.438Z,17.73
2023-05-08T14:58:30.006Z,17.25
2023-05-08T15:00:58.206Z,17.98
2023-05-08T15:03:26.997Z,18.95
2023-05-08T15:05:57.283Z,17.77
2023-05-08T15:08:25.629Z,17.58
2023-05-08T15:10:53.825Z,16.55
2023-05-08T15:13:22.112Z,18.30
2023-05-08T15:15:50.375Z,16.70
2023-05-08T15:18:18.599Z,16.15
2023-05-08T15:20:46.901Z,15.38
2023-05-08T15:23:16.579Z,15.95
2023-05-08T15:25:44.894Z,17.52
2023-05-08T15:28:13.073Z,16.52
2023-05-08T15:30:41.276Z,15.95
2023-05-08T15:33:09.566Z,15.80
2023-05-08T15:35:37.956Z,18.15
2023-05-08T15:38:07.581Z,18.48
2023-05-08T15:40:37.193Z,16.52
2023-05-08T15:43:05.491Z,18.27
2023-05-08T15:45:34.032Z,14.25
2023-05-08T15:48:02.373Z,13.95
2023-05-08T15:50:30.834Z,16.13
2023-05-08T15:52:59.199Z,16.77
2023-05-08T15:55:27.374Z,16.00
2023-05-08T15:57:57.145Z,16.58
2023-05-08T16:00:30.120Z,16.08
2023-05-08T16:03:05.521Z,15.98
2023-05-08T16:05:33.753Z,16.92
2023-05-08T16:08:02.138Z,15.77
2023-05-08T16:10:30.421Z,14.93
2023-05-08T16:13:00.026Z,13.90
2023-05-08T16:15:28.758Z,16.08
2023-05-08T16:17:57.002Z,15.93
2023-05-08T16:20:25.500Z,16.60
2023-05-08T16:22:55.518Z,18.13
2023-05-08T16:25:24.143Z,15.75
2023-05-08T16:27:52.649Z,17.70
2023-05-08T16:30:22.422Z,16.45
2023-05-08T16:32:50.787Z,15.50
2023-05-08T16:35:19.586Z,14.73
2023-05-08T16:37:48.590Z,14.20
2023-05-08T16:40:17.834Z,17.00
2023-05-08T16:42:46.126Z,16.10
2023-05-08T16:45:14.718Z,14.88
2023-05-08T16:47:44.685Z,16.23
2023-05-08T16:50:13.294Z,16.65
2023-05-08T16:52:41.635Z,15.65
2023-05-08T16:55:11.146Z,16.45
2023-05-08T16:57:39.558Z,16.40
2023-05-08T17:00:09.049Z,15.45
2023-05-08T17:02:37.491Z,15.65
2023-05-08T17:05:08.095Z,16.20
2023-05-08T17:07:36.373Z,16.38
2023-05-08T17:10:04.884Z,16.25
2023-05-08T17:12:33.169Z,15.40
2023-05-08T17:15:01.440Z,15.98
2023-05-08T17:17:29.908Z,15.38
2023-05-08T17:19:58.169Z,16.02
2023-05-08T17:22:28.599Z,19.67
2023-05-08T17:24:56.950Z,86.00
2023-05-08T17:27:25.291Z,255.35
2023-05-08T17:29:53.690Z,248.88
2023-05-08T17:32:22.039Z,236.23
2023-05-08T17:34:50.556Z,256.13
2023-05-08T17:37:18.798Z,243.77
2023-05-08T17:39:48.531Z,253.63
2023-05-08T17:42:17.075Z,210.75
2023-05-08T17:44:45.370Z,180.10
2023-05-08T17:47:13.738Z,165.55
2023-05-08T17:49:42.238Z,257.60
2023-05-08T17:52:10.539Z,254.60
2023-05-08T17:54:38.849Z,260.92
2023-05-08T17:57:08.512Z,388.92
2023-05-08T17:59:36.761Z,296.75
2023-05-08T18:02:05.751Z,258.08
2023-05-08T18:04:34.184Z,195.95
2023-05-08T18:07:04.080Z,162.88
2023-05-08T18:09:32.355Z,181.23
2023-05-08T18:12:02.649Z,163.13
2023-05-08T18:14:32.798Z,156.45
2023-05-08T18:17:01.354Z,139.82
2023-05-08T18:19:29.840Z,127.63
2023-05-08T18:21:58.139Z,99.95
2023-05-08T18:24:26.581Z,120.45
2023-05-08T18:26:54.953Z,113.43
2023-05-08T18:29:23.200Z,82.53
2023-05-08T18:31:52.937Z,78.05
2023-05-08T18:34:21.320Z,70.75
2023-05-08T18:36:50.484Z,67.15
2023-05-08T18:39:18.921Z,61.55
2023-05-08T18:41:47.137Z,61.15
2023-05-08T18:44:15.661Z,55.63
2023-05-08T18:46:43.975Z,53.40
2023-05-08T18:49:13.748Z,54.38
2023-05-08T18:51:42.021Z,57.03
2023-05-08T18:54:10.362Z,55.15
2023-05-08T18:56:38.527Z,46.17
2023-05-08T18:59:06.759Z,41.35
2023-05-08T19:01:35.332Z,46.00
2023-05-08T19:04:04.318Z,44.70
2023-05-08T19:06:34.268Z,41.13
2023-05-08T19:09:02.519Z,39.17
2023-05-08T19:11:30.791Z,49.05
2023-05-08T19:13:59.064Z,42.88
2023-05-08T19:16:27.564Z,33.22
2023-05-08T19:18:55.917Z,34.92
2023-05-08T19:21:24.236Z,33.33
2023-05-08T19:23:53.886Z,34.75
2023-05-08T19:26:22.900Z,33.17
2023-05-08T19:28:51.138Z,35.42
2023-05-08T19:31:19.455Z,27.92
2023-05-08T19:33:49.342Z,28.33
2023-05-08T19:36:18.406Z,28.70
2023-05-08T19:38:46.647Z,28.42
2023-05-08T19:41:17.833Z,25.95
2023-05-08T19:43:46.152Z,24.60
2023-05-08T19:46:14.392Z,28.70
2023-05-08T19:48:42.822Z,26.60
2023-05-08T19:51:11.659Z,24.30
2023-05-08T19:53:40.731Z,25.90
2023-05-08T19:56:09.344Z,25.15
2023-05-08T19:58:39.059Z,27.67
2023-05-08T20:01:07.405Z,195.10
2023-05-08T20:03:35.771Z,174.52
2023-05-08T20:06:04.321Z,144.85
2023-05-08T20:08:32.522Z,186.73
2023-05-08T20:11:04.204Z,324.67
2023-05-08T20:16:01.973Z,224.30
2023-05-08T20:18:30.271Z,329.02
2023-05-08T20:20:58.419Z,347.15
2023-05-08T20:23:26.678Z,483.08
2023-05-08T20:25:55.301Z,421.52
2023-05-08T20:28:26.099Z,430.48
2023-05-08T20:30:54.635Z,391.33
2023-05-08T20:33:24.561Z,279.38
2023-05-08T20:35:54.184Z,340.92
2023-05-08T20:38:22.550Z,416.48
2023-05-08T20:40:51.107Z,422.98
2023-05-08T20:43:19.541Z,469.83
2023-05-08T20:45:49.274Z,491.38
2023-05-08T20:48:17.625Z,395.20
2023-05-08T20:50:49.060Z,326.48
2023-05-08T20:53:17.486Z,307.42
2023-05-08T20:55:45.735Z,275.70
2023-05-08T20:58:14.743Z,259.02
2023-05-08T21:00:42.929Z,237.45
2023-05-08T21:03:11.254Z,225.32
2023-05-08T21:05:39.602Z,203.25
2023-05-08T21:08:09.200Z,171.75
2023-05-08T21:10:37.692Z,197.40
2023-05-08T21:13:06.449Z,152.98
2023-05-08T21:15:35.114Z,130.95
2023-05-08T21:18:03.468Z,132.10
2023-05-08T21:20:34.166Z,117.32
2023-05-08T21:23:02.550Z,99.53
2023-05-08T21:25:32.334Z,81.75
2023-05-08T21:28:00.659Z,86.38
2023-05-08T21:30:29.005Z,75.40
2023-05-08T21:32:57.359Z,72.55
2023-05-08T21:35:25.681Z,72.50
2023-05-08T21:37:54.756Z,82.10
2023-05-08T21:40:23.329Z,65.25
2023-05-08T21:42:53.051Z,62.55
2023-05-08T21:45:21.459Z,55.33
2023-05-08T21:47:49.836Z,51.13
2023-05-08T21:50:18.529Z,51.28
2023-05-08T21:52:46.906Z,54.95
2023-05-08T21:55:15.416Z,46.20
2023-05-08T21:57:43.825Z,42.00
2023-05-08T22:00:15.088Z,47.72
2023-05-08T22:02:52.571Z,39.22
2023-05-08T22:05:21.253Z,41.28
2023-05-08T22:07:49.528Z,38.78
2023-05-08T22:10:17.994Z,36.28
2023-05-08T22:12:46.248Z,37.45
2023-05-08T22:15:28.506Z,36.28
2023-05-08T22:17:58.380Z,34.78
2023-05-08T22:20:26.867Z,31.83
2023-05-08T22:22:55.117Z,32.58
2023-05-08T22:25:23.423Z,32.10
2023-05-08T22:27:51.669Z,28.48
2023-05-08T22:30:21.545Z,27.10
2023-05-08T22:32:55.320Z,30.60
2023-05-08T22:35:24.528Z,26.60
2023-05-08T22:37:53.511Z,25.15
2023-05-08T22:40:22.261Z,25.33
2023-05-08T22:42:53.503Z,24.77
2023-05-08T22:45:24.238Z,25.52
2023-05-08T22:47:52.586Z,25.25
2023-05-08T22:50:21.194Z,24.13
2023-05-08T22:52:49.465Z,26.27
2023-05-08T22:55:17.944Z,21.98
2023-05-08T22:57:46.381Z,20.45
2023-05-08T23:00:16.261Z,21.88
2023-05-08T23:02:45.974Z,21.73
2023-05-08T23:05:14.675Z,23.65
2023-05-08T23:07:43.238Z,22.63
2023-05-08T23:10:12.203Z,20.98
2023-05-08T23:12:40.518Z,20.73
2023-05-08T23:15:09.839Z,20.15
2023-05-08T23:17:38.267Z,21.40
2023-05-08T23:20:09.426Z,18.17
2023-05-08T23:22:37.691Z,20.40
2023-05-08T23:25:06.791Z,19.75
2023-05-08T23:27:35.053Z,16.90
2023-05-08T23:30:03.502Z,18.42
2023-05-08T23:32:31.744Z,18.52
2023-05-08T23:35:00.077Z,19.13
2023-05-08T23:37:29.704Z,19.73
2023-05-08T23:39:58.703Z,17.95
2023-05-08T23:42:27.290Z,18.70
2023-05-08T23:44:55.623Z,17.40
2023-05-08T23:47:24.087Z,16.83
2023-05-08T23:49:52.349Z,17.20
2023-05-08T23:52:21.736Z,18.15
2023-05-08T23:54:51.400Z,18.10
2023-05-08T23:57:19.631Z,15.90
2023-05-08T23:59:47.884Z,18.27
